createdAt,value
2022-08-18T00:01:47.397Z,99.90
2022-08-18T00:04:35.049Z,99.90
2022-08-18T00:07:01.083Z,99.90
2022-08-18T00:09:32.014Z,99.90
2022-08-18T00:12:00.289Z,99.90
2022-08-18T00:14:26.911Z,99.90
2022-08-18T00:16:53.895Z,99.90
2022-08-18T00:19:46.894Z,99.90
2022-08-18T00:22:09.217Z,99.90
2022-08-18T00:24:48.221Z,99.90
2022-08-18T00:27:21.585Z,99.90
2022-08-18T00:29:48.954Z,99.90
2022-08-18T00:32:18.460Z,99.90
2022-08-18T00:34:45.185Z,99.90
2022-08-18T00:37:12.093Z,99.90
2022-08-18T00:39:39.827Z,99.90
2022-08-18T00:42:28.823Z,99.90
2022-08-18T00:44:58.462Z,99.90
2022-08-18T00:47:33.157Z,99.90
2022-08-18T00:50:14.824Z,99.90
2022-08-18T00:52:43.859Z,99.90
2022-08-18T00:55:11.055Z,99.90
2022-08-18T00:57:37.683Z,99.90
2022-08-18T01:00:11.923Z,99.90
2022-08-18T01:02:42.329Z,99.90
2022-08-18T01:05:14.296Z,99.90
2022-08-18T01:07:48.202Z,99.90
2022-08-18T01:10:17.914Z,99.90
2022-08-18T01:12:46.875Z,99.90
2022-08-18T01:15:29.292Z,99.90
2022-08-18T01:18:22.662Z,99.90
2022-08-18T01:21:24.235Z,99.90
2022-08-18T01:23:51.692Z,99.90
2022-08-18T01:26:18.434Z,99.90
2022-08-18T01:28:46.361Z,99.90
2022-08-18T01:31:13.741Z,99.90
2022-08-18T01:33:42.137Z,99.90
2022-08-18T01:36:20.805Z,99.90
2022-08-18T01:38:50.190Z,99.90
2022-08-18T01:41:28.707Z,99.90
2022-08-18T01:43:56.900Z,99.90
2022-08-18T01:46:23.549Z,99.90
2022-08-18T01:48:50.177Z,99.90
2022-08-18T01:51:17.796Z,99.90
2022-08-18T01:53:45.018Z,99.90
2022-08-18T01:56:13.047Z,99.90
2022-08-18T01:58:39.676Z,99.90
2022-08-18T02:01:06.357Z,99.90
2022-08-18T02:03:37.341Z,99.90
2022-08-18T02:06:05.674Z,99.90
2022-08-18T02:08:32.604Z,99.90
2022-08-18T02:11:00.189Z,99.90
2022-08-18T02:13:27.067Z,99.90
2022-08-18T02:15:53.793Z,99.90
2022-08-18T02:18:47.851Z,99.90
2022-08-18T02:21:19.293Z,99.90
2022-08-18T02:23:53.027Z,99.90
2022-08-18T02:26:20.634Z,99.90
2022-08-18T02:28:47.293Z,99.90
2022-08-18T02:31:18.947Z,99.90
2022-08-18T02:33:51.848Z,99.90
2022-08-18T02:36:19.836Z,99.90
2022-08-18T02:38:54.809Z,99.90
2022-08-18T02:41:29.301Z,99.90
2022-08-18T02:43:56.873Z,99.90
2022-08-18T02:46:23.674Z,99.90
2022-08-18T02:48:56.758Z,99.90
2022-08-18T02:51:23.521Z,99.90
2022-08-18T02:53:52.463Z,99.90
2022-08-18T02:56:32.974Z,99.90
2022-08-18T02:59:10.243Z,99.90
2022-08-18T03:01:39.430Z,99.90
2022-08-18T03:04:07.971Z,99.90
2022-08-18T03:06:36.500Z,99.90
2022-08-18T03:09:04.422Z,99.90
2022-08-18T03:11:31.139Z,99.90
2022-08-18T03:13:57.934Z,99.90
2022-08-18T03:16:24.655Z,99.90
2022-08-18T03:18:51.799Z,99.90
2022-08-18T03:21:21.642Z,99.90
2022-08-18T03:24:00.771Z,99.90
2022-08-18T03:26:28.647Z,99.90
2022-08-18T03:28:55.392Z,99.90
2022-08-18T03:31:23.166Z,99.90
2022-08-18T03:33:51.506Z,99.90
2022-08-18T03:36:20.295Z,99.90
2022-08-18T03:38:47.526Z,99.90
2022-08-18T04:10:19.223Z,99.90
2022-08-18T04:12:46.637Z,99.90
2022-08-18T04:15:13.351Z,99.90
2022-08-18T04:17:56.337Z,99.90
2022-08-18T04:20:27.078Z,99.90
2022-08-18T04:22:54.332Z,99.90
2022-08-18T04:25:21.758Z,99.90
2022-08-18T04:27:48.480Z,99.90
2022-08-18T04:30:15.168Z,99.90
2022-08-18T04:32:43.413Z,99.90
2022-08-18T04:35:13.658Z,99.90
2022-08-18T04:37:41.915Z,99.90
2022-08-18T04:40:09.384Z,99.90
2022-08-18T04:42:36.257Z,99.90
2022-08-18T04:45:10.406Z,99.90
2022-08-18T04:47:41.744Z,99.90
2022-08-18T04:50:08.985Z,99.90
2022-08-18T04:52:54.086Z,99.90
2022-08-18T04:55:20.725Z,99.90
2022-08-18T04:57:47.398Z,99.90
2022-08-18T05:00:14.378Z,99.90
2022-08-18T05:02:41.456Z,99.90
2022-08-18T05:05:08.523Z,99.90
2022-08-18T05:07:35.220Z,99.90
2022-08-18T05:10:01.905Z,99.90
2022-08-18T05:12:28.872Z,99.90
2022-08-18T05:14:57.191Z,99.90
2022-08-18T05:17:29.108Z,99.90
2022-08-18T05:19:58.716Z,99.90
2022-08-18T05:22:28.664Z,99.90
2022-08-18T05:24:58.132Z,99.90
2022-08-18T05:27:24.787Z,99.90
2022-08-18T05:29:51.889Z,99.90
2022-08-18T05:32:41.099Z,99.90
2022-08-18T05:35:07.620Z,99.90
2022-08-18T05:38:19.353Z,99.90
2022-08-18T05:40:46.260Z,99.90
2022-08-18T05:43:13.283Z,99.90
2022-08-18T05:45:40.590Z,99.90
2022-08-18T05:48:07.229Z,99.90
2022-08-18T05:50:34.968Z,99.90
2022-08-18T05:53:13.310Z,99.90
2022-08-18T05:56:18.607Z,99.90
2022-08-18T05:58:49.169Z,99.90
2022-08-18T06:01:38.814Z,99.90
2022-08-18T06:04:17.726Z,99.90
2022-08-18T06:06:47.924Z,99.90
2022-08-18T06:09:18.083Z,99.90
2022-08-18T06:11:44.756Z,99.90
2022-08-18T06:14:11.513Z,99.90
2022-08-18T06:17:07.432Z,99.90
2022-08-18T06:19:49.501Z,99.90
2022-08-18T06:22:27.060Z,99.90
2022-08-18T06:25:06.889Z,99.90
2022-08-18T06:27:55.953Z,99.90
2022-08-18T06:30:41.501Z,99.90
2022-08-18T06:33:31.642Z,99.90
2022-08-18T06:36:18.706Z,99.90
2022-08-18T06:39:12.583Z,99.90
2022-08-18T06:41:48.950Z,99.90
2022-08-18T06:44:42.479Z,99.90
2022-08-18T06:47:09.086Z,99.90
2022-08-18T06:49:48.516Z,99.90
2022-08-18T06:52:38.330Z,99.90
2022-08-18T06:55:11.353Z,99.90
2022-08-18T06:57:40.057Z,99.90
2022-08-18T07:00:18.972Z,99.90
2022-08-18T07:03:01.261Z,99.90
2022-08-18T07:05:29.569Z,99.90
2022-08-18T07:08:15.828Z,99.90
2022-08-18T07:10:47.104Z,99.90
2022-08-18T07:13:21.318Z,99.90
2022-08-18T07:15:48.464Z,99.90
2022-08-18T07:18:25.319Z,99.90
2022-08-18T07:21:01.433Z,99.90
2022-08-18T07:23:33.988Z,99.90
2022-08-18T07:26:15.662Z,99.90
2022-08-18T07:28:50.661Z,99.90
2022-08-18T07:31:27.081Z,99.90
2022-08-18T07:34:05.698Z,99.90
2022-08-18T07:36:37.028Z,99.90
2022-08-18T07:39:09.343Z,99.90
2022-08-18T07:41:45.189Z,99.90
2022-08-18T07:44:20.256Z,99.90
2022-08-18T07:47:03.754Z,99.90
2022-08-18T07:49:35.627Z,99.90
2022-08-18T07:52:04.576Z,99.90
2022-08-18T07:54:50.377Z,99.90
2022-08-18T07:57:25.330Z,99.90
2022-08-18T08:00:01.877Z,99.90
2022-08-18T08:02:35.406Z,99.90
2022-08-18T08:05:04.998Z,99.90
2022-08-18T08:07:56.253Z,99.90
2022-08-18T08:10:41.843Z,99.90
2022-08-18T08:13:13.048Z,99.90
2022-08-18T08:16:16.801Z,99.90
2022-08-18T08:18:59.657Z,99.90
2022-08-18T08:21:28.670Z,99.90
2022-08-18T08:23:56.169Z,99.90
2022-08-18T08:26:37.932Z,99.90
2022-08-18T08:29:33.089Z,99.90
2022-08-18T08:32:03.030Z,99.90
2022-08-18T08:34:49.477Z,99.90
2022-08-18T08:37:44.473Z,99.90
2022-08-18T08:41:03.536Z,99.90
2022-08-18T08:43:32.462Z,99.90
2022-08-18T08:46:06.777Z,99.90
2022-08-18T08:48:36.465Z,99.90
2022-08-18T08:51:42.464Z,99.90
2022-08-18T08:54:23.465Z,99.90
2022-08-18T08:56:51.056Z,99.90
2022-08-18T08:59:19.226Z,99.90
2022-08-18T09:01:52.057Z,99.90
2022-08-18T09:04:36.325Z,99.90
2022-08-18T09:07:21.093Z,99.90
2022-08-18T09:09:51.876Z,99.90
2022-08-18T09:12:33.436Z,99.90
2022-08-18T09:15:18.615Z,99.90
2022-08-18T09:17:50.604Z,99.90
2022-08-18T09:20:51.238Z,99.90
2022-08-18T09:23:27.605Z,99.90
2022-08-18T09:25:56.024Z,99.90
2022-08-18T09:28:40.221Z,99.90
2022-08-18T09:31:08.702Z,99.90
2022-08-18T09:33:44.390Z,99.90
2022-08-18T09:36:32.819Z,99.90
2022-08-18T09:39:50.274Z,99.90
2022-08-18T09:49:47.692Z,99.90
2022-08-18T09:52:21.037Z,99.90
2022-08-18T09:54:59.988Z,99.90
2022-08-18T09:57:41.294Z,99.90
2022-08-18T10:00:29.700Z,99.90
2022-08-18T10:02:57.815Z,99.90
2022-08-18T10:05:31.031Z,99.90
2022-08-18T10:08:06.551Z,99.90
2022-08-18T10:11:16.522Z,99.90
2022-08-18T10:13:54.408Z,99.90
2022-08-18T10:16:23.736Z,99.90
2022-08-18T10:18:58.760Z,99.90
2022-08-18T10:21:31.576Z,99.90
2022-08-18T10:24:35.078Z,99.90
2022-08-18T10:27:08.797Z,99.90
2022-08-18T10:29:41.658Z,99.90
2022-08-18T10:32:08.315Z,99.90
2022-08-18T10:34:51.743Z,99.90
2022-08-18T10:37:26.336Z,99.90
2022-08-18T10:39:59.058Z,99.90
2022-08-18T10:45:34.571Z,99.90
2022-08-18T10:48:16.623Z,99.90
2022-08-18T10:51:07.258Z,99.90
2022-08-18T10:53:58.894Z,99.90
2022-08-18T10:56:43.850Z,99.90
2022-08-18T10:59:30.581Z,99.90
2022-08-18T11:02:44.038Z,99.70
2022-08-18T11:05:11.873Z,99.30
2022-08-18T11:07:42.894Z,98.90
2022-08-18T11:13:30.711Z,98.10
2022-08-18T11:16:13.688Z,97.20
2022-08-18T11:18:44.365Z,97.80
2022-08-18T11:21:33.041Z,98.40
2022-08-18T11:24:10.213Z,96.50
2022-08-18T11:26:59.023Z,95.20
2022-08-18T11:29:27.122Z,96.30
2022-08-18T11:31:59.626Z,96.00
2022-08-18T11:34:53.078Z,96.20
2022-08-18T11:37:51.226Z,95.20
2022-08-18T11:41:09.716Z,95.30
2022-08-18T11:43:30.029Z,95.00
2022-08-18T11:46:30.433Z,92.30
2022-08-18T11:48:58.205Z,93.50
2022-08-18T11:51:25.429Z,93.50
2022-08-18T11:54:00.793Z,93.50
2022-08-18T11:56:36.091Z,92.60
2022-08-18T11:59:35.054Z,92.90
2022-08-18T12:02:19.358Z,87.20
2022-08-18T12:04:53.298Z,85.90
2022-08-18T12:07:32.101Z,90.00
2022-08-18T12:10:26.102Z,90.90
2022-08-18T12:12:53.778Z,90.50
2022-08-18T12:15:24.713Z,87.30
2022-08-18T12:17:52.591Z,87.00
2022-08-18T12:20:19.904Z,89.60
2022-08-18T12:22:46.769Z,89.70
2022-08-18T12:25:15.109Z,90.90
2022-08-18T12:27:51.267Z,91.50
2022-08-18T12:30:19.021Z,90.30
2022-08-18T12:33:00.891Z,89.30
2022-08-18T12:35:32.628Z,89.50
2022-08-18T12:38:03.333Z,85.90
2022-08-18T12:40:38.268Z,82.60
2022-08-18T12:43:05.945Z,85.30
2022-08-18T12:45:32.760Z,88.60
2022-08-18T12:48:02.370Z,86.30
2022-08-18T12:50:34.161Z,88.80
2022-08-18T12:53:04.458Z,89.80
2022-08-18T12:55:35.468Z,82.40
2022-08-18T12:58:05.217Z,86.10
2022-08-18T13:00:32.554Z,83.00
2022-08-18T13:02:59.279Z,85.60
2022-08-18T13:05:29.633Z,84.90
2022-08-18T13:07:58.162Z,83.30
2022-08-18T13:10:45.726Z,83.70
2022-08-18T13:13:11.570Z,85.70
2022-08-18T13:15:38.325Z,87.70
2022-08-18T13:18:05.246Z,86.00
2022-08-18T13:20:31.927Z,85.80
2022-08-18T13:22:58.636Z,84.30
2022-08-18T13:25:32.846Z,83.20
2022-08-18T13:28:06.080Z,82.90
2022-08-18T13:30:33.113Z,82.20
2022-08-18T13:33:05.302Z,83.00
2022-08-18T13:35:52.386Z,85.00
2022-08-18T13:38:27.108Z,80.60
2022-08-18T13:40:57.696Z,82.20
2022-08-18T13:43:30.776Z,80.20
2022-08-18T13:45:57.418Z,81.10
2022-08-18T13:48:25.341Z,77.70
2022-08-18T13:50:56.334Z,78.10
2022-08-18T13:53:23.649Z,76.20
2022-08-18T13:55:51.598Z,77.50
2022-08-18T13:58:20.853Z,77.80
2022-08-18T14:00:51.547Z,76.80
2022-08-18T14:03:20.590Z,78.00
2022-08-18T14:06:02.889Z,78.70
2022-08-18T14:08:33.878Z,77.00
2022-08-18T14:11:02.245Z,77.00
2022-08-18T14:13:29.034Z,76.30
2022-08-18T14:16:05.240Z,75.00
2022-08-18T14:18:31.861Z,75.10
2022-08-18T14:21:16.949Z,76.20
2022-08-18T14:24:10.736Z,75.50
2022-08-18T14:26:50.263Z,74.20
2022-08-18T14:29:17.645Z,76.40
2022-08-18T14:32:05.194Z,75.50
2022-08-18T14:34:31.876Z,74.30
2022-08-18T14:36:58.701Z,74.70
2022-08-18T14:39:25.653Z,75.20
2022-08-18T14:41:55.958Z,73.90
2022-08-18T14:44:24.258Z,72.90
2022-08-18T14:46:52.333Z,72.70
2022-08-18T14:49:28.159Z,73.00
2022-08-18T14:51:56.059Z,72.40
2022-08-18T14:54:23.667Z,72.40
2022-08-18T14:56:55.082Z,70.50
2022-08-18T14:59:23.181Z,71.10
2022-08-18T15:01:49.927Z,72.10
2022-08-18T15:04:19.018Z,70.80
2022-08-18T15:06:55.928Z,68.80
2022-08-18T15:09:26.808Z,70.80
2022-08-18T15:11:55.884Z,71.00
2022-08-18T15:14:32.777Z,68.40
2022-08-18T15:17:13.255Z,67.90
2022-08-18T15:19:58.538Z,67.70
2022-08-18T15:22:45.782Z,67.80
2022-08-18T15:25:30.883Z,63.00
2022-08-18T15:27:58.911Z,61.50
2022-08-18T15:30:25.663Z,61.90
2022-08-18T15:32:53.798Z,62.90
2022-08-18T15:35:20.764Z,64.00
2022-08-18T15:37:48.271Z,65.50
2022-08-18T15:40:31.134Z,62.10
2022-08-18T15:43:06.752Z,62.30
2022-08-18T15:45:43.312Z,59.90
2022-08-18T15:48:18.808Z,63.80
2022-08-18T15:50:51.247Z,61.20
2022-08-18T15:53:29.981Z,57.50
2022-08-18T15:55:57.062Z,59.80
2022-08-18T15:58:26.899Z,56.50
2022-08-18T16:00:56.190Z,59.50
2022-08-18T16:03:25.593Z,58.60
2022-08-18T16:05:54.465Z,57.50
2022-08-18T16:08:22.219Z,56.40
2022-08-18T16:10:49.010Z,56.90
2022-08-18T16:13:15.697Z,57.90
2022-08-18T16:15:46.470Z,57.40
2022-08-18T16:18:13.457Z,56.80
2022-08-18T16:20:40.217Z,57.50
2022-08-18T16:23:07.482Z,58.30
2022-08-18T16:25:34.277Z,60.40
2022-08-18T16:28:01.155Z,58.70
2022-08-18T16:30:28.131Z,58.40
2022-08-18T16:32:54.980Z,58.60
2022-08-18T16:35:23.276Z,57.70
2022-08-18T16:37:49.953Z,60.90
2022-08-18T16:40:17.715Z,60.50
2022-08-18T16:42:44.440Z,60.20
2022-08-18T16:45:11.275Z,61.00
2022-08-18T16:47:40.491Z,60.50
2022-08-18T16:50:12.037Z,62.10
2022-08-18T16:52:39.099Z,62.30
2022-08-18T16:55:06.092Z,62.10
2022-08-18T16:57:55.469Z,62.10
2022-08-18T17:00:41.933Z,64.00
2022-08-18T17:03:27.401Z,63.40
2022-08-18T17:06:07.814Z,65.00
2022-08-18T17:08:34.527Z,65.10
2022-08-18T17:11:13.766Z,65.60
2022-08-18T17:13:41.126Z,66.00
2022-08-18T17:16:08.325Z,66.50
2022-08-18T17:18:36.037Z,66.70
2022-08-18T17:21:06.757Z,66.40
2022-08-18T17:23:33.510Z,67.20
2022-08-18T17:26:00.607Z,67.60
2022-08-18T17:28:50.505Z,67.60
2022-08-18T17:31:21.151Z,68.30
2022-08-18T17:33:47.864Z,69.40
2022-08-18T17:36:23.341Z,69.50
2022-08-18T17:38:54.180Z,69.10
2022-08-18T17:41:21.197Z,69.50
2022-08-18T17:43:48.168Z,70.30
2022-08-18T17:46:23.596Z,70.90
2022-08-18T17:48:55.513Z,71.40
2022-08-18T17:51:37.465Z,71.60
2022-08-18T17:54:23.329Z,71.60
2022-08-18T17:56:54.734Z,74.60
2022-08-18T17:59:51.127Z,73.40
2022-08-18T18:02:29.838Z,75.30
2022-08-18T18:05:07.127Z,77.10
2022-08-18T18:07:54.647Z,76.20
2022-08-18T18:10:40.195Z,77.40
2022-08-18T18:13:25.547Z,76.30
2022-08-18T18:15:54.377Z,76.50
2022-08-18T18:18:24.400Z,78.60
2022-08-18T18:21:17.437Z,79.30
2022-08-18T18:23:49.532Z,81.10
2022-08-18T18:26:30.095Z,83.00
2022-08-18T18:29:14.382Z,83.40
2022-08-18T18:31:42.257Z,83.00
2022-08-18T18:34:30.492Z,84.20
2022-08-18T18:36:57.435Z,85.60
2022-08-18T18:39:33.125Z,85.20
2022-08-18T18:42:17.541Z,85.20
2022-08-18T18:44:56.206Z,83.90
2022-08-18T18:47:49.773Z,87.70
2022-08-18T18:50:53.103Z,88.50
2022-08-18T18:53:44.453Z,87.50
2022-08-18T18:56:36.306Z,87.40
2022-08-18T18:59:02.903Z,91.40
2022-08-18T19:01:38.936Z,91.40
2022-08-18T19:04:15.904Z,90.90
2022-08-18T19:06:48.419Z,93.00
2022-08-18T19:09:23.139Z,91.00
2022-08-18T19:12:05.164Z,92.50
2022-08-18T19:14:38.013Z,93.00
2022-08-18T19:17:13.378Z,93.50
2022-08-18T19:19:48.455Z,92.90
2022-08-18T19:22:24.784Z,94.40
2022-08-18T19:25:14.691Z,95.30
2022-08-18T19:27:49.774Z,96.00
2022-08-18T19:30:16.761Z,96.00
2022-08-18T19:32:46.093Z,97.20
2022-08-18T19:35:19.527Z,96.80
2022-08-18T19:38:01.890Z,95.90
2022-08-18T19:41:05.486Z,97.80
2022-08-18T19:43:38.576Z,96.60
2022-08-18T19:46:23.082Z,98.30
2022-08-18T19:49:00.645Z,99.90
2022-08-18T19:51:33.513Z,99.90
2022-08-18T19:54:27.805Z,99.90
2022-08-18T19:57:08.590Z,99.90
2022-08-18T19:59:42.407Z,99.90
2022-08-18T20:02:35.011Z,99.90
2022-08-18T20:05:13.551Z,99.90
2022-08-18T20:07:47.096Z,99.90
2022-08-18T20:10:30.918Z,99.90
2022-08-18T20:13:23.596Z,99.90
2022-08-18T20:16:13.353Z,99.90
2022-08-18T20:18:44.831Z,99.90
2022-08-18T20:21:22.956Z,99.90
2022-08-18T20:24:07.267Z,99.90
2022-08-18T20:26:38.082Z,99.90
2022-08-18T20:29:05.893Z,99.90
2022-08-18T20:31:49.049Z,99.90
2022-08-18T20:34:17.061Z,99.90
2022-08-18T20:36:44.496Z,99.90
2022-08-18T20:39:54.812Z,99.90
2022-08-18T20:42:21.479Z,99.90
2022-08-18T20:44:48.100Z,99.90
2022-08-18T20:47:23.698Z,99.90
2022-08-18T20:50:12.484Z,99.90
2022-08-18T20:53:01.138Z,99.90
2022-08-18T20:55:45.706Z,99.90
2022-08-18T20:58:17.357Z,99.90
2022-08-18T21:00:46.105Z,99.90
2022-08-18T21:03:13.878Z,99.90
2022-08-18T21:05:43.598Z,99.90
2022-08-18T21:08:16.412Z,99.90
2022-08-18T21:10:54.177Z,99.90
2022-08-18T21:13:41.928Z,99.90
2022-08-18T21:16:09.611Z,99.90
2022-08-18T21:18:36.438Z,99.90
2022-08-18T21:21:05.183Z,99.90
2022-08-18T21:23:37.584Z,99.90
2022-08-18T21:26:13.895Z,99.90
2022-08-18T21:28:42.521Z,99.90
2022-08-18T21:31:44.213Z,99.90
2022-08-18T21:34:11.450Z,99.90
2022-08-18T21:36:39.607Z,99.90
2022-08-18T21:39:16.152Z,99.90
2022-08-18T21:41:49.380Z,99.90
2022-08-18T21:44:19.810Z,99.90
2022-08-18T21:46:46.425Z,99.90
2022-08-18T21:49:14.269Z,99.90
2022-08-18T21:51:46.328Z,99.90
2022-08-18T21:54:18.730Z,99.90
2022-08-18T21:56:45.549Z,99.90
2022-08-18T21:59:17.392Z,99.90
2022-08-18T22:02:02.138Z,99.90
2022-08-18T22:04:28.815Z,99.90
2022-08-18T22:06:57.485Z,99.90
2022-08-18T22:09:44.991Z,99.90
2022-08-18T22:12:52.044Z,99.90
2022-08-18T22:15:21.879Z,99.90
2022-08-18T22:17:59.599Z,99.90
2022-08-18T22:20:46.413Z,99.90
2022-08-18T22:23:31.581Z,99.90
2022-08-18T22:26:27.408Z,99.90
2022-08-18T22:28:55.447Z,99.90
2022-08-18T22:31:23.177Z,99.90
2022-08-18T22:33:50.772Z,99.90
2022-08-18T22:36:19.917Z,99.90
2022-08-18T22:38:47.133Z,99.90
2022-08-18T22:41:14.422Z,99.90
2022-08-18T22:43:41.055Z,99.90
2022-08-18T22:46:07.716Z,99.90
2022-08-18T22:48:34.354Z,99.90
2022-08-18T22:51:01.005Z,99.90
2022-08-18T22:53:28.558Z,99.90
2022-08-18T22:55:57.317Z,99.90
2022-08-18T22:58:28.321Z,99.90
2022-08-18T23:00:56.182Z,99.90
2022-08-18T23:03:32.287Z,99.90
2022-08-18T23:06:11.695Z,99.90
2022-08-18T23:08:55.663Z,99.90
2022-08-18T23:11:23.686Z,99.90
2022-08-18T23:13:50.406Z,99.90
2022-08-18T23:16:31.848Z,99.90
2022-08-18T23:19:02.039Z,99.90
2022-08-18T23:21:34.349Z,99.90
2022-08-18T23:24:06.721Z,99.90
2022-08-18T23:26:34.174Z,99.90
2022-08-18T23:29:01.227Z,99.90
2022-08-18T23:31:27.879Z,99.90
2022-08-18T23:33:54.504Z,99.90
2022-08-18T23:36:21.163Z,99.90
2022-08-18T23:38:47.837Z,99.90
2022-08-18T23:41:14.941Z,99.90
2022-08-18T23:43:42.387Z,99.90
2022-08-18T23:46:29.060Z,99.90
2022-08-18T23:48:57.269Z,99.90
2022-08-18T23:51:29.126Z,99.90
2022-08-18T23:54:00.381Z,99.90
2022-08-18T23:56:30.650Z,99.90
2022-08-18T23:58:57.563Z,99.90
